sensor_id;sensor_type;location;lat;lon;timestamp;temperature;humidity
6293;DHT22;3179;54.350;10.102;2023-04-24T00:01:25;16.20;98.90
6293;DHT22;3179;54.350;10.102;2023-04-24T00:03:52;16.20;99.10
6293;DHT22;3179;54.350;10.102;2023-04-24T00:06:19;16.20;99.10
6293;DHT22;3179;54.350;10.102;2023-04-24T00:08:46;16.20;99.20
6293;DHT22;3179;54.350;10.102;2023-04-24T00:11:14;16.20;99.40
6293;DHT22;3179;54.350;10.102;2023-04-24T00:13:40;16.10;99.50
6293;DHT22;3179;54.350;10.102;2023-04-24T00:16:07;16.10;99.60
6293;DHT22;3179;54.350;10.102;2023-04-24T00:18:34;16.10;99.70
6293;DHT22;3179;54.350;10.102;2023-04-24T00:21:01;16.10;99.50
6293;DHT22;3179;54.350;10.102;2023-04-24T00:23:28;16.10;99.60
6293;DHT22;3179;54.350;10.102;2023-04-24T00:25:55;16.20;99.50
6293;DHT22;3179;54.350;10.102;2023-04-24T00:28:23;16.10;99.50
6293;DHT22;3179;54.350;10.102;2023-04-24T00:30:49;16.10;99.70
6293;DHT22;3179;54.350;10.102;2023-04-24T00:33:16;16.10;99.60
6293;DHT22;3179;54.350;10.102;2023-04-24T00:35:43;16.10;99.60
6293;DHT22;3179;54.350;10.102;2023-04-24T00:38:10;16.10;99.60
6293;DHT22;3179;54.350;10.102;2023-04-24T00:40:36;16.10;99.70
6293;DHT22;3179;54.350;10.102;2023-04-24T00:43:03;16.10;99.50
6293;DHT22;3179;54.350;10.102;2023-04-24T00:45:31;16.10;99.50
6293;DHT22;3179;54.350;10.102;2023-04-24T00:48:00;16.10;99.60
6293;DHT22;3179;54.350;10.102;2023-04-24T00:50:27;16.10;99.90
6293;DHT22;3179;54.350;10.102;2023-04-24T00:52:54;16.10;99.90
6293;DHT22;3179;54.350;10.102;2023-04-24T00:55:22;16.00;99.90
6293;DHT22;3179;54.350;10.102;2023-04-24T00:57:49;16.00;99.90
6293;DHT22;3179;54.350;10.102;2023-04-24T01:00:16;16.00;99.80
6293;DHT22;3179;54.350;10.102;2023-04-24T01:02:44;16.00;99.90
6293;DHT22;3179;54.350;10.102;2023-04-24T01:05:13;16.00;99.90
6293;DHT22;3179;54.350;10.102;2023-04-24T01:07:41;15.90;99.90
6293;DHT22;3179;54.350;10.102;2023-04-24T01:10:11;15.90;99.90
6293;DHT22;3179;54.350;10.102;2023-04-24T01:12:39;15.90;99.90
6293;DHT22;3179;54.350;10.102;2023-04-24T01:15:07;15.80;99.90
6293;DHT22;3179;54.350;10.102;2023-04-24T01:17:34;15.70;99.90
6293;DHT22;3179;54.350;10.102;2023-04-24T01:20:03;15.60;99.90
6293;DHT22;3179;54.350;10.102;2023-04-24T01:22:32;15.60;99.90
6293;DHT22;3179;54.350;10.102;2023-04-24T01:24:59;15.60;99.90
6293;DHT22;3179;54.350;10.102;2023-04-24T01:27:26;15.50;99.90
6293;DHT22;3179;54.350;10.102;2023-04-24T01:29:53;15.50;99.90
6293;DHT22;3179;54.350;10.102;2023-04-24T01:32:20;15.50;99.90
6293;DHT22;3179;54.350;10.102;2023-04-24T01:34:48;15.50;99.90
6293;DHT22;3179;54.350;10.102;2023-04-24T01:37:15;15.50;99.90
6293;DHT22;3179;54.350;10.102;2023-04-24T01:39:43;15.50;99.90
6293;DHT22;3179;54.350;10.102;2023-04-24T01:42:10;15.50;99.90
6293;DHT22;3179;54.350;10.102;2023-04-24T01:44:38;15.50;99.90
6293;DHT22;3179;54.350;10.102;2023-04-24T01:47:05;15.50;99.90
6293;DHT22;3179;54.350;10.102;2023-04-24T01:49:32;15.50;99.90
6293;DHT22;3179;54.350;10.102;2023-04-24T01:52:02;15.50;99.90
6293;DHT22;3179;54.350;10.102;2023-04-24T01:54:29;15.50;99.90
6293;DHT22;3179;54.350;10.102;2023-04-24T01:56:57;15.40;99.90
6293;DHT22;3179;54.350;10.102;2023-04-24T01:59:25;15.50;99.90
6293;DHT22;3179;54.350;10.102;2023-04-24T02:01:53;15.50;99.90
6293;DHT22;3179;54.350;10.102;2023-04-24T02:04:20;15.50;99.90
6293;DHT22;3179;54.350;10.102;2023-04-24T02:06:46;15.50;99.90
6293;DHT22;3179;54.350;10.102;2023-04-24T02:09:14;15.50;99.90
6293;DHT22;3179;54.350;10.102;2023-04-24T02:11:40;15.50;99.90
6293;DHT22;3179;54.350;10.102;2023-04-24T02:14:08;15.40;99.90
6293;DHT22;3179;54.350;10.102;2023-04-24T02:16:35;15.40;99.90
6293;DHT22;3179;54.350;10.102;2023-04-24T02:19:02;15.40;99.90
6293;DHT22;3179;54.350;10.102;2023-04-24T02:21:29;15.40;99.90
6293;DHT22;3179;54.350;10.102;2023-04-24T02:23:57;15.40;99.90
6293;DHT22;3179;54.350;10.102;2023-04-24T02:26:24;15.40;99.90
6293;DHT22;3179;54.350;10.102;2023-04-24T02:28:51;15.40;99.90
6293;DHT22;3179;54.350;10.102;2023-04-24T02:31:19;15.40;99.90
6293;DHT22;3179;54.350;10.102;2023-04-24T02:33:46;15.40;99.90
6293;DHT22;3179;54.350;10.102;2023-04-24T02:36:13;15.30;99.90
6293;DHT22;3179;54.350;10.102;2023-04-24T02:38:40;15.30;99.90
6293;DHT22;3179;54.350;10.102;2023-04-24T02:41:09;15.30;99.90
6293;DHT22;3179;54.350;10.102;2023-04-24T02:43:36;15.30;99.90
6293;DHT22;3179;54.350;10.102;2023-04-24T02:46:03;15.30;99.90
6293;DHT22;3179;54.350;10.102;2023-04-24T02:48:31;15.30;99.90
6293;DHT22;3179;54.350;10.102;2023-04-24T02:50:58;15.30;99.90
6293;DHT22;3179;54.350;10.102;2023-04-24T02:53:25;15.30;99.90
6293;DHT22;3179;54.350;10.102;2023-04-24T02:55:52;15.30;99.90
6293;DHT22;3179;54.350;10.102;2023-04-24T02:58:19;15.30;99.90
6293;DHT22;3179;54.350;10.102;2023-04-24T03:00:46;15.20;99.90
6293;DHT22;3179;54.350;10.102;2023-04-24T03:03:13;15.20;99.90
6293;DHT22;3179;54.350;10.102;2023-04-24T03:05:41;15.20;99.90
6293;DHT22;3179;54.350;10.102;2023-04-24T03:08:08;15.20;99.90
6293;DHT22;3179;54.350;10.102;2023-04-24T03:10:35;15.20;99.90
6293;DHT22;3179;54.350;10.102;2023-04-24T03:13:02;15.10;99.90
6293;DHT22;3179;54.350;10.102;2023-04-24T03:15:29;15.10;99.90
6293;DHT22;3179;54.350;10.102;2023-04-24T03:17:55;15.10;99.90
6293;DHT22;3179;54.350;10.102;2023-04-24T03:20:22;15.10;99.90
6293;DHT22;3179;54.350;10.102;2023-04-24T03:22:51;15.10;99.90
6293;DHT22;3179;54.350;10.102;2023-04-24T03:25:17;15.10;99.90
6293;DHT22;3179;54.350;10.102;2023-04-24T03:27:44;15.10;99.90
6293;DHT22;3179;54.350;10.102;2023-04-24T03:30:11;15.10;99.90
6293;DHT22;3179;54.350;10.102;2023-04-24T03:32:38;15.00;99.90
6293;DHT22;3179;54.350;10.102;2023-04-24T03:35:06;15.00;99.90
6293;DHT22;3179;54.350;10.102;2023-04-24T03:37:33;15.10;99.90
6293;DHT22;3179;54.350;10.102;2023-04-24T03:40:02;15.00;99.90
6293;DHT22;3179;54.350;10.102;2023-04-24T03:42:29;15.00;99.90
6293;DHT22;3179;54.350;10.102;2023-04-24T03:44:56;15.00;99.90
6293;DHT22;3179;54.350;10.102;2023-04-24T03:47:22;15.00;99.90
6293;DHT22;3179;54.350;10.102;2023-04-24T03:49:49;15.00;99.90
6293;DHT22;3179;54.350;10.102;2023-04-24T03:52:16;15.00;99.90
6293;DHT22;3179;54.350;10.102;2023-04-24T03:54:43;14.90;99.90
6293;DHT22;3179;54.350;10.102;2023-04-24T03:57:11;14.90;99.90
6293;DHT22;3179;54.350;10.102;2023-04-24T03:59:38;14.90;99.90
6293;DHT22;3179;54.350;10.102;2023-04-24T04:02:04;14.90;99.90
6293;DHT22;3179;54.350;10.102;2023-04-24T04:04:31;14.90;99.90
6293;DHT22;3179;54.350;10.102;2023-04-24T04:06:58;14.90;99.90
6293;DHT22;3179;54.350;10.102;2023-04-24T04:09:26;14.90;99.90
6293;DHT22;3179;54.350;10.102;2023-04-24T04:11:53;14.80;99.90
6293;DHT22;3179;54.350;10.102;2023-04-24T04:14:21;14.80;99.90
6293;DHT22;3179;54.350;10.102;2023-04-24T04:16:48;14.80;99.90
6293;DHT22;3179;54.350;10.102;2023-04-24T04:19:15;14.80;99.90
6293;DHT22;3179;54.350;10.102;2023-04-24T04:21:42;14.80;99.90
6293;DHT22;3179;54.350;10.102;2023-04-24T04:24:11;14.80;99.90
6293;DHT22;3179;54.350;10.102;2023-04-24T04:26:38;14.80;99.90
6293;DHT22;3179;54.350;10.102;2023-04-24T04:29:06;14.80;99.90
6293;DHT22;3179;54.350;10.102;2023-04-24T04:31:34;14.80;99.90
6293;DHT22;3179;54.350;10.102;2023-04-24T04:34:02;14.80;99.90
6293;DHT22;3179;54.350;10.102;2023-04-24T04:36:29;14.70;99.90
6293;DHT22;3179;54.350;10.102;2023-04-24T04:38:55;14.70;99.90
6293;DHT22;3179;54.350;10.102;2023-04-24T04:41:24;14.70;99.90
6293;DHT22;3179;54.350;10.102;2023-04-24T04:43:51;14.70;99.90
6293;DHT22;3179;54.350;10.102;2023-04-24T04:46:18;14.70;99.90
6293;DHT22;3179;54.350;10.102;2023-04-24T04:48:46;14.70;99.90
6293;DHT22;3179;54.350;10.102;2023-04-24T04:51:13;14.70;99.90
6293;DHT22;3179;54.350;10.102;2023-04-24T04:53:40;14.70;99.90
6293;DHT22;3179;54.350;10.102;2023-04-24T04:56:06;14.70;99.90
6293;DHT22;3179;54.350;10.102;2023-04-24T04:58:33;14.70;99.90
6293;DHT22;3179;54.350;10.102;2023-04-24T05:01:00;14.70;99.90
6293;DHT22;3179;54.350;10.102;2023-04-24T05:03:27;14.70;99.90
6293;DHT22;3179;54.350;10.102;2023-04-24T05:05:55;14.70;99.90
6293;DHT22;3179;54.350;10.102;2023-04-24T05:08:23;14.70;99.90
6293;DHT22;3179;54.350;10.102;2023-04-24T05:10:50;14.70;99.90
6293;DHT22;3179;54.350;10.102;2023-04-24T05:13:17;14.70;99.90
6293;DHT22;3179;54.350;10.102;2023-04-24T05:15:44;14.70;99.90
6293;DHT22;3179;54.350;10.102;2023-04-24T05:18:11;14.60;99.90
6293;DHT22;3179;54.350;10.102;2023-04-24T05:20:37;14.60;99.90
6293;DHT22;3179;54.350;10.102;2023-04-24T05:23:06;14.60;99.90
6293;DHT22;3179;54.350;10.102;2023-04-24T05:25:32;14.70;99.90
6293;DHT22;3179;54.350;10.102;2023-04-24T05:28:00;14.60;99.90
6293;DHT22;3179;54.350;10.102;2023-04-24T05:30:27;14.60;99.90
6293;DHT22;3179;54.350;10.102;2023-04-24T05:32:54;14.60;99.90
6293;DHT22;3179;54.350;10.102;2023-04-24T05:35:21;14.60;99.90
6293;DHT22;3179;54.350;10.102;2023-04-24T05:37:48;14.70;99.90
6293;DHT22;3179;54.350;10.102;2023-04-24T05:40:16;14.60;99.90
6293;DHT22;3179;54.350;10.102;2023-04-24T05:42:43;14.70;99.90
6293;DHT22;3179;54.350;10.102;2023-04-24T05:45:10;14.70;99.90
6293;DHT22;3179;54.350;10.102;2023-04-24T05:47:42;14.70;99.90
6293;DHT22;3179;54.350;10.102;2023-04-24T05:50:09;14.70;99.90
6293;DHT22;3179;54.350;10.102;2023-04-24T05:52:36;14.70;99.90
6293;DHT22;3179;54.350;10.102;2023-04-24T05:55:03;14.70;99.90
6293;DHT22;3179;54.350;10.102;2023-04-24T05:57:32;14.80;99.90
6293;DHT22;3179;54.350;10.102;2023-04-24T05:59:58;14.80;99.90
6293;DHT22;3179;54.350;10.102;2023-04-24T06:02:25;14.80;99.90
6293;DHT22;3179;54.350;10.102;2023-04-24T06:04:52;14.80;99.90
6293;DHT22;3179;54.350;10.102;2023-04-24T06:07:20;14.80;99.90
6293;DHT22;3179;54.350;10.102;2023-04-24T06:09:47;14.80;99.90
6293;DHT22;3179;54.350;10.102;2023-04-24T06:12:14;14.80;99.90
6293;DHT22;3179;54.350;10.102;2023-04-24T06:14:42;14.80;99.90
6293;DHT22;3179;54.350;10.102;2023-04-24T06:17:09;14.80;99.90
6293;DHT22;3179;54.350;10.102;2023-04-24T06:19:36;14.80;99.90
6293;DHT22;3179;54.350;10.102;2023-04-24T06:22:03;14.80;99.90
6293;DHT22;3179;54.350;10.102;2023-04-24T06:24:30;14.80;99.90
6293;DHT22;3179;54.350;10.102;2023-04-24T06:26:57;14.90;99.90
6293;DHT22;3179;54.350;10.102;2023-04-24T06:29:25;14.90;99.90
6293;DHT22;3179;54.350;10.102;2023-04-24T06:31:53;14.90;99.90
6293;DHT22;3179;54.350;10.102;2023-04-24T06:34:20;14.90;99.90
6293;DHT22;3179;54.350;10.102;2023-04-24T06:36:47;15.00;99.90
6293;DHT22;3179;54.350;10.102;2023-04-24T06:39:14;14.90;99.90
6293;DHT22;3179;54.350;10.102;2023-04-24T06:41:41;14.90;99.90
6293;DHT22;3179;54.350;10.102;2023-04-24T06:44:07;15.00;99.90
6293;DHT22;3179;54.350;10.102;2023-04-24T06:46:34;15.00;99.90
6293;DHT22;3179;54.350;10.102;2023-04-24T06:49:02;15.00;99.90
6293;DHT22;3179;54.350;10.102;2023-04-24T06:51:29;15.00;99.90
6293;DHT22;3179;54.350;10.102;2023-04-24T06:53:58;15.00;99.90
6293;DHT22;3179;54.350;10.102;2023-04-24T06:56:26;15.00;99.90
6293;DHT22;3179;54.350;10.102;2023-04-24T06:58:54;15.00;99.90
6293;DHT22;3179;54.350;10.102;2023-04-24T07:01:21;15.00;99.90
6293;DHT22;3179;54.350;10.102;2023-04-24T07:03:47;15.00;99.90
6293;DHT22;3179;54.350;10.102;2023-04-24T07:06:16;15.00;99.90
6293;DHT22;3179;54.350;10.102;2023-04-24T07:08:46;15.00;99.90
6293;DHT22;3179;54.350;10.102;2023-04-24T07:11:13;15.00;99.90
6293;DHT22;3179;54.350;10.102;2023-04-24T07:13:40;15.00;99.90
6293;DHT22;3179;54.350;10.102;2023-04-24T07:16:08;15.00;99.90
6293;DHT22;3179;54.350;10.102;2023-04-24T07:18:35;15.10;99.90
6293;DHT22;3179;54.350;10.102;2023-04-24T07:21:02;15.10;99.90
6293;DHT22;3179;54.350;10.102;2023-04-24T07:23:31;15.10;99.90
6293;DHT22;3179;54.350;10.102;2023-04-24T07:25:58;15.10;99.90
6293;DHT22;3179;54.350;10.102;2023-04-24T07:28:24;15.10;99.90
6293;DHT22;3179;54.350;10.102;2023-04-24T07:30:51;15.10;99.90
6293;DHT22;3179;54.350;10.102;2023-04-24T07:33:19;15.20;99.90
6293;DHT22;3179;54.350;10.102;2023-04-24T07:35:46;15.10;99.90
6293;DHT22;3179;54.350;10.102;2023-04-24T07:38:13;15.10;99.90
6293;DHT22;3179;54.350;10.102;2023-04-24T07:40:41;15.10;99.90
6293;DHT22;3179;54.350;10.102;2023-04-24T07:43:08;15.10;99.70
6293;DHT22;3179;54.350;10.102;2023-04-24T07:45:35;15.10;99.70
6293;DHT22;3179;54.350;10.102;2023-04-24T07:48:03;15.10;99.80
6293;DHT22;3179;54.350;10.102;2023-04-24T07:50:29;15.10;99.90
6293;DHT22;3179;54.350;10.102;2023-04-24T07:52:56;15.10;99.90
6293;DHT22;3179;54.350;10.102;2023-04-24T07:55:23;15.10;99.80
6293;DHT22;3179;54.350;10.102;2023-04-24T07:57:51;15.10;99.60
6293;DHT22;3179;54.350;10.102;2023-04-24T08:00:18;15.10;99.60
6293;DHT22;3179;54.350;10.102;2023-04-24T08:02:45;15.00;99.40
6293;DHT22;3179;54.350;10.102;2023-04-24T08:05:13;15.00;99.40
6293;DHT22;3179;54.350;10.102;2023-04-24T08:07:39;15.00;99.40
6293;DHT22;3179;54.350;10.102;2023-04-24T08:10:09;15.00;99.40
6293;DHT22;3179;54.350;10.102;2023-04-24T08:12:37;15.00;99.50
6293;DHT22;3179;54.350;10.102;2023-04-24T08:15:06;15.10;99.60
6293;DHT22;3179;54.350;10.102;2023-04-24T08:17:34;15.10;99.50
6293;DHT22;3179;54.350;10.102;2023-04-24T08:20:01;15.00;99.30
6293;DHT22;3179;54.350;10.102;2023-04-24T08:22:29;15.00;99.30
6293;DHT22;3179;54.350;10.102;2023-04-24T08:24:56;15.00;99.30
6293;DHT22;3179;54.350;10.102;2023-04-24T08:27:23;15.00;99.40
6293;DHT22;3179;54.350;10.102;2023-04-24T08:29:50;15.00;99.30
6293;DHT22;3179;54.350;10.102;2023-04-24T08:32:18;15.00;99.30
6293;DHT22;3179;54.350;10.102;2023-04-24T08:34:45;15.00;99.40
6293;DHT22;3179;54.350;10.102;2023-04-24T08:37:11;15.00;99.40
6293;DHT22;3179;54.350;10.102;2023-04-24T08:39:38;15.00;99.40
6293;DHT22;3179;54.350;10.102;2023-04-24T08:42:05;15.10;99.30
6293;DHT22;3179;54.350;10.102;2023-04-24T08:44:34;15.10;99.60
6293;DHT22;3179;54.350;10.102;2023-04-24T08:47:02;15.10;99.40
6293;DHT22;3179;54.350;10.102;2023-04-24T08:49:31;15.10;99.30
6293;DHT22;3179;54.350;10.102;2023-04-24T08:51:57;15.10;99.40
6293;DHT22;3179;54.350;10.102;2023-04-24T08:54:26;15.10;99.40
6293;DHT22;3179;54.350;10.102;2023-04-24T08:56:54;15.10;99.30
6293;DHT22;3179;54.350;10.102;2023-04-24T08:59:26;15.10;99.30
6293;DHT22;3179;54.350;10.102;2023-04-24T09:01:55;15.10;99.40
6293;DHT22;3179;54.350;10.102;2023-04-24T09:04:23;15.20;99.40
6293;DHT22;3179;54.350;10.102;2023-04-24T09:06:52;15.20;99.40
6293;DHT22;3179;54.350;10.102;2023-04-24T09:09:22;15.20;99.10
6293;DHT22;3179;54.350;10.102;2023-04-24T09:11:49;15.30;99.20
6293;DHT22;3179;54.350;10.102;2023-04-24T09:14:17;15.30;99.30
6293;DHT22;3179;54.350;10.102;2023-04-24T09:16:43;15.40;99.50
6293;DHT22;3179;54.350;10.102;2023-04-24T09:19:10;15.40;99.40
6293;DHT22;3179;54.350;10.102;2023-04-24T09:21:37;15.50;99.30
6293;DHT22;3179;54.350;10.102;2023-04-24T09:24:07;15.50;99.40
6293;DHT22;3179;54.350;10.102;2023-04-24T09:26:35;15.50;99.20
6293;DHT22;3179;54.350;10.102;2023-04-24T09:29:03;15.40;99.10
6293;DHT22;3179;54.350;10.102;2023-04-24T09:31:30;15.40;99.20
6293;DHT22;3179;54.350;10.102;2023-04-24T09:33:59;15.30;99.20
6293;DHT22;3179;54.350;10.102;2023-04-24T09:36:30;15.30;99.20
6293;DHT22;3179;54.350;10.102;2023-04-24T09:38:58;15.30;99.20
6293;DHT22;3179;54.350;10.102;2023-04-24T09:41:27;15.30;99.20
6293;DHT22;3179;54.350;10.102;2023-04-24T09:43:55;15.30;99.20
6293;DHT22;3179;54.350;10.102;2023-04-24T09:46:29;15.20;99.30
6293;DHT22;3179;54.350;10.102;2023-04-24T09:48:57;15.20;99.20
6293;DHT22;3179;54.350;10.102;2023-04-24T09:51:33;15.20;99.10
6293;DHT22;3179;54.350;10.102;2023-04-24T09:54:00;15.20;99.20
6293;DHT22;3179;54.350;10.102;2023-04-24T09:56:32;15.20;99.20
6293;DHT22;3179;54.350;10.102;2023-04-24T09:59:04;15.20;99.20
6293;DHT22;3179;54.350;10.102;2023-04-24T10:01:32;15.30;99.20
6293;DHT22;3179;54.350;10.102;2023-04-24T10:04:00;15.40;99.30
6293;DHT22;3179;54.350;10.102;2023-04-24T10:06:33;15.50;99.20
6293;DHT22;3179;54.350;10.102;2023-04-24T10:09:00;15.60;99.30
6293;DHT22;3179;54.350;10.102;2023-04-24T10:11:28;15.60;99.10
6293;DHT22;3179;54.350;10.102;2023-04-24T10:13:56;15.70;99.00
6293;DHT22;3179;54.350;10.102;2023-04-24T10:16:23;15.70;99.10
6293;DHT22;3179;54.350;10.102;2023-04-24T10:18:52;15.70;99.00
6293;DHT22;3179;54.350;10.102;2023-04-24T10:21:19;15.80;99.20
6293;DHT22;3179;54.350;10.102;2023-04-24T10:23:48;15.90;99.10
6293;DHT22;3179;54.350;10.102;2023-04-24T10:26:16;16.00;99.00
6293;DHT22;3179;54.350;10.102;2023-04-24T10:28:47;16.10;98.90
6293;DHT22;3179;54.350;10.102;2023-04-24T10:31:14;16.20;98.80
6293;DHT22;3179;54.350;10.102;2023-04-24T10:33:42;16.20;98.80
6293;DHT22;3179;54.350;10.102;2023-04-24T10:36:10;16.20;98.60
6293;DHT22;3179;54.350;10.102;2023-04-24T10:38:39;16.20;98.60
6293;DHT22;3179;54.350;10.102;2023-04-24T10:41:08;16.10;98.40
6293;DHT22;3179;54.350;10.102;2023-04-24T10:43:39;16.10;98.70
6293;DHT22;3179;54.350;10.102;2023-04-24T10:46:08;16.10;98.50
6293;DHT22;3179;54.350;10.102;2023-04-24T10:48:36;16.00;98.60
6293;DHT22;3179;54.350;10.102;2023-04-24T10:51:11;16.00;98.40
6293;DHT22;3179;54.350;10.102;2023-04-24T10:53:39;15.90;98.30
6293;DHT22;3179;54.350;10.102;2023-04-24T10:56:07;15.90;98.30
6293;DHT22;3179;54.350;10.102;2023-04-24T10:58:40;15.90;98.30
6293;DHT22;3179;54.350;10.102;2023-04-24T11:01:23;15.90;98.30
6293;DHT22;3179;54.350;10.102;2023-04-24T11:03:54;15.90;98.20
6293;DHT22;3179;54.350;10.102;2023-04-24T11:06:29;16.00;98.30
6293;DHT22;3179;54.350;10.102;2023-04-24T11:09:02;16.00;98.30
6293;DHT22;3179;54.350;10.102;2023-04-24T11:11:30;16.10;98.50
6293;DHT22;3179;54.350;10.102;2023-04-24T11:14:04;16.10;98.50
6293;DHT22;3179;54.350;10.102;2023-04-24T11:16:43;16.20;98.30
6293;DHT22;3179;54.350;10.102;2023-04-24T11:19:20;16.20;98.40
6293;DHT22;3179;54.350;10.102;2023-04-24T11:21:48;16.30;98.30
6293;DHT22;3179;54.350;10.102;2023-04-24T11:24:31;16.30;98.20
6293;DHT22;3179;54.350;10.102;2023-04-24T11:27:00;16.30;98.10
6293;DHT22;3179;54.350;10.102;2023-04-24T11:29:42;16.20;97.70
6293;DHT22;3179;54.350;10.102;2023-04-24T11:32:19;16.20;98.10
6293;DHT22;3179;54.350;10.102;2023-04-24T11:34:47;16.30;98.10
6293;DHT22;3179;54.350;10.102;2023-04-24T11:37:14;16.30;98.30
6293;DHT22;3179;54.350;10.102;2023-04-24T11:39:41;16.30;98.10
6293;DHT22;3179;54.350;10.102;2023-04-24T11:42:08;16.20;98.10
6293;DHT22;3179;54.350;10.102;2023-04-24T11:44:35;16.20;97.90
6293;DHT22;3179;54.350;10.102;2023-04-24T11:47:02;16.10;98.00
6293;DHT22;3179;54.350;10.102;2023-04-24T11:49:31;16.00;97.70
6293;DHT22;3179;54.350;10.102;2023-04-24T11:51:57;15.90;97.60
6293;DHT22;3179;54.350;10.102;2023-04-24T11:54:26;15.90;97.90
6293;DHT22;3179;54.350;10.102;2023-04-24T11:56:52;15.90;97.90
6293;DHT22;3179;54.350;10.102;2023-04-24T11:59:19;15.80;98.00
6293;DHT22;3179;54.350;10.102;2023-04-24T12:01:46;15.80;97.90
6293;DHT22;3179;54.350;10.102;2023-04-24T12:04:16;15.90;97.90
6293;DHT22;3179;54.350;10.102;2023-04-24T12:07:00;15.90;97.90
6293;DHT22;3179;54.350;10.102;2023-04-24T12:09:26;15.90;97.80
6293;DHT22;3179;54.350;10.102;2023-04-24T12:11:54;16.00;97.90
6293;DHT22;3179;54.350;10.102;2023-04-24T12:14:22;16.00;97.70
6293;DHT22;3179;54.350;10.102;2023-04-24T12:16:49;16.00;97.70
6293;DHT22;3179;54.350;10.102;2023-04-24T12:19:20;16.00;97.70
6293;DHT22;3179;54.350;10.102;2023-04-24T12:22:00;16.00;97.80
6293;DHT22;3179;54.350;10.102;2023-04-24T12:24:27;16.10;97.70
6293;DHT22;3179;54.350;10.102;2023-04-24T12:26:54;16.20;97.70
6293;DHT22;3179;54.350;10.102;2023-04-24T12:29:21;16.20;97.60
6293;DHT22;3179;54.350;10.102;2023-04-24T12:31:49;16.30;97.60
6293;DHT22;3179;54.350;10.102;2023-04-24T12:34:20;16.40;97.60
6293;DHT22;3179;54.350;10.102;2023-04-24T12:36:47;16.50;97.60
6293;DHT22;3179;54.350;10.102;2023-04-24T12:39:18;16.60;97.60
6293;DHT22;3179;54.350;10.102;2023-04-24T12:41:55;16.70;97.60
6293;DHT22;3179;54.350;10.102;2023-04-24T12:44:29;16.80;97.30
6293;DHT22;3179;54.350;10.102;2023-04-24T12:46:56;16.80;97.30
6293;DHT22;3179;54.350;10.102;2023-04-24T12:49:23;16.80;97.40
6293;DHT22;3179;54.350;10.102;2023-04-24T12:51:50;16.80;97.10
6293;DHT22;3179;54.350;10.102;2023-04-24T12:54:18;16.80;97.00
6293;DHT22;3179;54.350;10.102;2023-04-24T12:56:45;16.80;96.90
6293;DHT22;3179;54.350;10.102;2023-04-24T12:59:11;16.90;96.80
6293;DHT22;3179;54.350;10.102;2023-04-24T13:01:38;16.90;96.80
6293;DHT22;3179;54.350;10.102;2023-04-24T13:04:05;17.00;96.70
6293;DHT22;3179;54.350;10.102;2023-04-24T13:06:32;17.10;96.60
6293;DHT22;3179;54.350;10.102;2023-04-24T13:08:59;17.10;96.60
6293;DHT22;3179;54.350;10.102;2023-04-24T13:11:27;17.20;96.60
6293;DHT22;3179;54.350;10.102;2023-04-24T13:13:54;17.20;96.60
6293;DHT22;3179;54.350;10.102;2023-04-24T13:16:21;17.20;96.80
6293;DHT22;3179;54.350;10.102;2023-04-24T13:18:48;17.10;96.70
6293;DHT22;3179;54.350;10.102;2023-04-24T13:21:15;17.00;96.60
6293;DHT22;3179;54.350;10.102;2023-04-24T13:23:42;16.90;96.50
6293;DHT22;3179;54.350;10.102;2023-04-24T13:26:09;16.80;96.60
6293;DHT22;3179;54.350;10.102;2023-04-24T13:28:37;16.70;96.60
6293;DHT22;3179;54.350;10.102;2023-04-24T13:31:04;16.60;96.60
6293;DHT22;3179;54.350;10.102;2023-04-24T13:33:31;16.50;96.50
6293;DHT22;3179;54.350;10.102;2023-04-24T13:35:58;16.40;96.60
6293;DHT22;3179;54.350;10.102;2023-04-24T13:38:25;16.30;96.60
6293;DHT22;3179;54.350;10.102;2023-04-24T13:40:52;16.20;96.60
6293;DHT22;3179;54.350;10.102;2023-04-24T13:43:18;16.20;96.60
6293;DHT22;3179;54.350;10.102;2023-04-24T13:45:47;16.20;96.70
6293;DHT22;3179;54.350;10.102;2023-04-24T13:48:13;16.10;96.70
6293;DHT22;3179;54.350;10.102;2023-04-24T13:50:41;16.10;96.90
6293;DHT22;3179;54.350;10.102;2023-04-24T13:53:08;16.10;97.20
6293;DHT22;3179;54.350;10.102;2023-04-24T13:55:35;16.10;97.30
6293;DHT22;3179;54.350;10.102;2023-04-24T13:58:02;16.00;97.40
6293;DHT22;3179;54.350;10.102;2023-04-24T14:00:29;16.10;97.50
6293;DHT22;3179;54.350;10.102;2023-04-24T14:02:57;16.10;97.50
6293;DHT22;3179;54.350;10.102;2023-04-24T14:05:24;16.10;97.40
6293;DHT22;3179;54.350;10.102;2023-04-24T14:07:51;16.10;97.40
6293;DHT22;3179;54.350;10.102;2023-04-24T14:10:18;16.10;97.40
6293;DHT22;3179;54.350;10.102;2023-04-24T14:12:45;16.10;97.50
6293;DHT22;3179;54.350;10.102;2023-04-24T14:15:11;16.10;97.50
6293;DHT22;3179;54.350;10.102;2023-04-24T14:17:38;16.10;97.70
6293;DHT22;3179;54.350;10.102;2023-04-24T14:20:08;16.10;97.60
6293;DHT22;3179;54.350;10.102;2023-04-24T14:22:35;16.10;97.80
6293;DHT22;3179;54.350;10.102;2023-04-24T14:25:01;16.10;97.90
6293;DHT22;3179;54.350;10.102;2023-04-24T14:27:28;16.10;98.00
6293;DHT22;3179;54.350;10.102;2023-04-24T14:29:55;16.10;97.90
6293;DHT22;3179;54.350;10.102;2023-04-24T14:32:22;16.10;98.00
6293;DHT22;3179;54.350;10.102;2023-04-24T14:34:49;16.00;97.90
6293;DHT22;3179;54.350;10.102;2023-04-24T14:37:17;16.00;98.00
6293;DHT22;3179;54.350;10.102;2023-04-24T14:39:45;16.00;98.00
6293;DHT22;3179;54.350;10.102;2023-04-24T14:42:11;15.90;97.90
6293;DHT22;3179;54.350;10.102;2023-04-24T14:44:39;15.90;97.90
6293;DHT22;3179;54.350;10.102;2023-04-24T14:47:05;15.90;97.80
6293;DHT22;3179;54.350;10.102;2023-04-24T14:49:32;15.90;98.00
6293;DHT22;3179;54.350;10.102;2023-04-24T14:51:59;15.80;98.30
6293;DHT22;3179;54.350;10.102;2023-04-24T14:54:27;15.80;97.90
6293;DHT22;3179;54.350;10.102;2023-04-24T14:56:54;15.80;98.00
6293;DHT22;3179;54.350;10.102;2023-04-24T14:59:22;15.80;98.40
6293;DHT22;3179;54.350;10.102;2023-04-24T15:01:49;16.00;98.10
6293;DHT22;3179;54.350;10.102;2023-04-24T15:04:17;16.20;98.00
6293;DHT22;3179;54.350;10.102;2023-04-24T15:06:43;16.20;98.00
6293;DHT22;3179;54.350;10.102;2023-04-24T15:09:10;16.30;97.90
6293;DHT22;3179;54.350;10.102;2023-04-24T15:11:38;16.50;97.80
6293;DHT22;3179;54.350;10.102;2023-04-24T15:14:05;16.70;97.50
6293;DHT22;3179;54.350;10.102;2023-04-24T15:16:32;16.70;97.60
6293;DHT22;3179;54.350;10.102;2023-04-24T15:18:59;16.70;97.60
6293;DHT22;3179;54.350;10.102;2023-04-24T15:21:26;16.90;97.60
6293;DHT22;3179;54.350;10.102;2023-04-24T15:23:52;16.90;97.60
6293;DHT22;3179;54.350;10.102;2023-04-24T15:26:19;17.20;97.60
6293;DHT22;3179;54.350;10.102;2023-04-24T15:28:47;17.30;97.30
6293;DHT22;3179;54.350;10.102;2023-04-24T15:31:14;17.60;97.20
6293;DHT22;3179;54.350;10.102;2023-04-24T15:33:41;17.90;96.90
6293;DHT22;3179;54.350;10.102;2023-04-24T15:36:08;17.70;97.00
6293;DHT22;3179;54.350;10.102;2023-04-24T15:38:35;17.70;97.10
6293;DHT22;3179;54.350;10.102;2023-04-24T15:41:04;17.80;96.90
6293;DHT22;3179;54.350;10.102;2023-04-24T15:43:31;17.70;96.80
6293;DHT22;3179;54.350;10.102;2023-04-24T15:46:01;17.50;96.60
6293;DHT22;3179;54.350;10.102;2023-04-24T15:48:28;17.20;96.70